createdAt,value
2023-03-01T00:02:28.229Z,99.90
2023-03-01T00:05:51.189Z,99.90
2023-03-01T00:09:13.109Z,99.90
2023-03-01T00:12:34.744Z,99.90
2023-03-01T00:15:56.395Z,99.90
2023-03-01T00:19:19.117Z,99.90
2023-03-01T00:22:42.055Z,99.90
2023-03-01T00:26:06.593Z,99.90
2023-03-01T00:29:28.171Z,99.90
2023-03-01T00:32:49.761Z,99.90
2023-03-01T00:36:12.042Z,99.90
2023-03-01T00:39:34.999Z,99.90
2023-03-01T00:42:56.676Z,99.90
2023-03-01T00:46:20.487Z,99.90
2023-03-01T00:49:42.135Z,99.90
2023-03-01T00:53:03.706Z,99.90
2023-03-01T00:56:27.264Z,99.90
2023-03-01T00:59:48.876Z,99.90
2023-03-01T01:03:10.473Z,99.90
2023-03-01T01:06:34.029Z,99.90
2023-03-01T01:09:55.752Z,99.90
2023-03-01T01:13:19.569Z,99.90
2023-03-01T01:16:41.155Z,99.90
2023-03-01T01:20:03.004Z,99.90
2023-03-01T01:23:24.589Z,99.90
2023-03-01T01:26:46.654Z,99.90
2023-03-01T01:30:11.568Z,99.90
2023-03-01T01:33:33.767Z,99.90
2023-03-01T01:36:55.365Z,99.90
2023-03-01T01:40:16.991Z,99.90
2023-03-01T01:43:39.557Z,99.90
2023-03-01T01:47:04.739Z,99.90
2023-03-01T01:50:26.527Z,99.90
2023-03-01T01:53:50.322Z,99.90
2023-03-01T01:57:13.893Z,99.90
2023-03-01T02:00:35.697Z,99.90
2023-03-01T02:03:58.824Z,99.90
2023-03-01T02:07:22.270Z,99.90
2023-03-01T02:10:44.173Z,99.90
2023-03-01T02:14:06.091Z,99.90
2023-03-01T02:17:27.884Z,99.90
2023-03-01T02:20:57.962Z,99.90
2023-03-01T02:24:25.436Z,99.90
2023-03-01T02:27:52.845Z,99.90
2023-03-01T02:31:17.908Z,99.90
2023-03-01T02:34:39.699Z,99.90
2023-03-01T02:38:02.040Z,99.90
2023-03-01T02:41:24.480Z,99.90
2023-03-01T02:44:46.095Z,99.90
2023-03-01T02:48:09.159Z,99.90
2023-03-01T02:51:48.733Z,99.90
2023-03-01T02:55:11.384Z,99.90
2023-03-01T02:58:33.027Z,99.90
2023-03-01T03:01:54.619Z,99.90
2023-03-01T03:05:18.936Z,99.90
2023-03-01T03:08:40.572Z,99.90
2023-03-01T03:12:02.188Z,99.90
2023-03-01T03:15:24.270Z,99.90
2023-03-01T03:18:45.944Z,99.90
2023-03-01T03:22:08.892Z,99.90
2023-03-01T03:25:30.755Z,99.90
2023-03-01T03:28:52.351Z,99.90
2023-03-01T03:32:13.983Z,99.90
2023-03-01T03:35:39.313Z,99.90
2023-03-01T03:39:02.284Z,99.90
2023-03-01T03:42:23.897Z,99.90
2023-03-01T03:45:45.836Z,99.90
2023-03-01T03:49:07.524Z,99.90
2023-03-01T03:52:29.159Z,99.90
2023-03-01T03:55:52.176Z,99.90
2023-03-01T03:59:13.776Z,99.90
2023-03-01T04:02:35.482Z,99.90
2023-03-01T04:05:58.328Z,99.90
2023-03-01T04:09:19.910Z,99.90
2023-03-01T04:12:42.972Z,99.90
2023-03-01T04:16:04.971Z,99.90
2023-03-01T04:19:26.578Z,99.90
2023-03-01T04:22:48.178Z,99.90
2023-03-01T04:26:09.842Z,99.90
2023-03-01T04:29:32.783Z,99.90
2023-03-01T04:32:54.434Z,99.90
2023-03-01T04:36:17.241Z,99.90
2023-03-01T04:39:38.913Z,99.90
2023-03-01T04:43:00.534Z,99.90
2023-03-01T04:46:23.864Z,99.90
2023-03-01T04:49:45.515Z,99.90
2023-03-01T04:53:07.191Z,99.90
2023-03-01T04:56:29.203Z,99.90
2023-03-01T04:59:50.958Z,99.90
2023-03-01T05:03:13.902Z,99.90
2023-03-01T05:06:35.510Z,99.90
2023-03-01T05:09:57.130Z,99.90
2023-03-01T05:13:18.850Z,99.90
2023-03-01T05:16:40.443Z,99.90
2023-03-01T05:20:03.600Z,99.90
2023-03-01T05:23:25.259Z,99.90
2023-03-01T05:26:46.856Z,99.90
2023-03-01T05:30:09.359Z,99.90
2023-03-01T05:33:30.965Z,99.90
2023-03-01T05:36:54.267Z,99.90
2023-03-01T05:40:16.690Z,99.90
2023-03-01T05:43:38.328Z,99.90
2023-03-01T05:46:59.914Z,99.90
2023-03-01T05:50:22.208Z,99.90
2023-03-01T05:53:45.120Z,99.90
2023-03-01T05:57:06.724Z,99.90
2023-03-01T06:00:29.120Z,99.90
2023-03-01T06:03:50.736Z,99.90
2023-03-01T06:07:12.370Z,99.90
2023-03-01T06:10:35.322Z,99.90
2023-03-01T06:13:56.905Z,99.90
2023-03-01T06:17:18.573Z,99.90
2023-03-01T06:20:40.170Z,99.90
2023-03-01T06:24:01.776Z,99.90
2023-03-01T06:27:24.829Z,99.90
2023-03-01T06:30:46.469Z,99.90
2023-03-01T06:34:08.045Z,99.90
2023-03-01T06:37:29.672Z,99.90
2023-03-01T06:40:54.449Z,99.90
2023-03-01T06:44:17.389Z,99.90
2023-03-01T06:47:38.975Z,99.90
2023-03-01T06:51:00.758Z,99.90
2023-03-01T06:54:22.367Z,99.90
2023-03-01T06:57:43.932Z,99.90
2023-03-01T07:01:08.153Z,99.90
2023-03-01T07:04:29.757Z,99.90
2023-03-01T07:07:51.368Z,99.90
2023-03-01T07:11:12.971Z,99.90
2023-03-01T07:14:34.625Z,99.90
2023-03-01T07:17:58.116Z,99.90
2023-03-01T07:21:19.705Z,99.90
2023-03-01T07:24:41.697Z,99.90
2023-03-01T07:28:03.365Z,99.90
2023-03-01T07:31:24.943Z,99.90
2023-03-01T07:34:47.886Z,99.90
2023-03-01T07:38:09.531Z,99.90
2023-03-01T07:41:31.130Z,99.90
2023-03-01T07:44:52.726Z,99.90
2023-03-01T07:48:14.321Z,99.90
2023-03-01T07:51:37.274Z,99.90
2023-03-01T07:54:58.971Z,99.90
2023-03-01T07:58:20.606Z,99.90
2023-03-01T08:01:42.279Z,99.90
2023-03-01T08:05:04.256Z,99.90
2023-03-01T08:08:27.327Z,99.90
2023-03-01T08:11:48.965Z,99.20
2023-03-01T08:15:11.142Z,97.20
2023-03-01T08:18:32.733Z,96.40
2023-03-01T08:21:54.317Z,95.90
2023-03-01T08:25:17.677Z,94.90
2023-03-01T08:28:39.793Z,94.00
2023-03-01T08:32:01.527Z,93.90
2023-03-01T08:35:23.217Z,93.10
2023-03-01T08:38:44.875Z,92.90
2023-03-01T08:42:07.817Z,93.30
2023-03-01T08:45:29.543Z,94.00
2023-03-01T08:48:51.169Z,92.80
2023-03-01T08:52:12.767Z,92.80
2023-03-01T08:55:34.370Z,93.30
2023-03-01T08:58:57.323Z,92.30
2023-03-01T09:02:19.166Z,92.40
2023-03-01T09:05:40.778Z,92.60
2023-03-01T09:09:03.040Z,92.90
2023-03-01T09:12:24.695Z,92.50
2023-03-01T09:15:47.660Z,92.30
2023-03-01T09:19:09.237Z,92.20
2023-03-01T09:22:30.957Z,92.30
2023-03-01T09:25:53.405Z,92.30
2023-03-01T09:29:15.412Z,92.70
2023-03-01T09:32:38.349Z,92.20
2023-03-01T09:36:00.085Z,92.50
2023-03-01T09:39:21.737Z,91.90
2023-03-01T09:43:01.157Z,91.90
2023-03-01T09:46:23.872Z,91.90
2023-03-01T09:49:49.325Z,92.20
2023-03-01T09:53:13.330Z,93.90
2023-03-01T09:56:37.938Z,94.30
2023-03-01T10:00:03.547Z,95.00
2023-03-01T10:03:27.137Z,95.30
2023-03-01T10:06:52.649Z,95.70
2023-03-01T10:10:19.265Z,95.90
2023-03-01T10:13:46.960Z,96.00
2023-03-01T10:17:12.648Z,96.20
2023-03-01T10:20:40.524Z,96.40
2023-03-01T10:24:09.673Z,96.50
2023-03-01T10:27:35.761Z,96.90
2023-03-01T10:30:58.442Z,96.60
2023-03-01T10:34:20.978Z,96.70
2023-03-01T10:37:47.161Z,96.50
2023-03-01T10:41:10.090Z,96.50
2023-03-01T10:44:42.539Z,96.40
2023-03-01T10:48:05.206Z,96.90
2023-03-01T10:51:26.902Z,96.60
2023-03-01T10:54:53.020Z,96.00
2023-03-01T10:58:20.088Z,96.50
2023-03-01T11:01:41.723Z,96.10
2023-03-01T11:05:16.898Z,96.40
2023-03-01T11:08:40.262Z,96.20
2023-03-01T11:12:01.862Z,96.20
2023-03-01T11:15:26.176Z,95.90
2023-03-01T11:18:56.684Z,96.10
2023-03-01T11:22:20.347Z,95.70
2023-03-01T11:25:43.594Z,95.90
2023-03-01T11:29:07.157Z,95.50
2023-03-01T11:32:31.327Z,95.60
2023-03-01T11:35:56.898Z,95.40
2023-03-01T11:39:22.991Z,95.20
2023-03-01T11:42:49.232Z,94.90
2023-03-01T11:46:38.112Z,95.30
2023-03-01T11:50:15.418Z,94.90
2023-03-01T11:53:51.890Z,95.20
2023-03-01T11:57:17.318Z,94.90
2023-03-01T12:00:44.739Z,94.80
2023-03-01T12:04:16.362Z,94.70
2023-03-01T12:07:43.573Z,94.50
2023-03-01T12:11:12.861Z,94.60
2023-03-01T12:14:43.747Z,94.20
2023-03-01T12:18:14.407Z,94.50
2023-03-01T12:21:43.621Z,94.00
2023-03-01T12:25:15.415Z,93.90
2023-03-01T12:28:46.926Z,93.80
2023-03-01T12:32:34.073Z,93.90
2023-03-01T12:36:09.774Z,93.90
2023-03-01T12:39:37.151Z,93.40
2023-03-01T12:43:05.154Z,93.70
2023-03-01T12:46:33.795Z,93.00
2023-03-01T12:49:56.974Z,93.60
2023-03-01T12:53:22.831Z,92.90
2023-03-01T12:56:45.364Z,93.20
2023-03-01T13:00:16.512Z,93.20
2023-03-01T13:03:47.904Z,93.20
2023-03-01T13:07:14.206Z,93.60
2023-03-01T13:10:40.243Z,93.00
2023-03-01T13:14:20.611Z,92.60
2023-03-01T13:17:45.600Z,92.60
2023-03-01T13:21:07.570Z,92.70
2023-03-01T13:24:30.397Z,93.00
2023-03-01T13:27:52.145Z,93.50
2023-03-01T13:31:28.725Z,92.70
2023-03-01T13:34:52.734Z,93.10
2023-03-01T13:38:32.836Z,93.50
2023-03-01T13:41:55.063Z,93.10
2023-03-01T13:45:18.751Z,92.90
2023-03-01T13:48:40.772Z,92.90
2023-03-01T13:52:03.806Z,92.70
2023-03-01T13:55:27.019Z,92.60
2023-03-01T13:58:50.031Z,92.80
2023-03-01T14:02:13.024Z,93.00
2023-03-01T14:05:34.985Z,92.90
2023-03-01T14:09:04.143Z,92.80
2023-03-01T14:12:36.993Z,92.40
2023-03-01T14:16:07.375Z,92.60
2023-03-01T14:19:34.267Z,92.40
2023-03-01T14:22:57.219Z,93.10
2023-03-01T14:26:22.806Z,92.90
2023-03-01T14:29:45.049Z,92.90
2023-03-01T14:33:07.427Z,92.80
2023-03-01T14:36:30.354Z,92.80
2023-03-01T14:39:52.588Z,92.70
2023-03-01T14:43:19.457Z,92.70
2023-03-01T14:46:42.098Z,92.60
2023-03-01T14:50:06.030Z,92.70
2023-03-01T14:53:29.287Z,92.60
2023-03-01T14:56:51.599Z,92.70
2023-03-01T15:00:18.614Z,93.60
2023-03-01T15:03:42.529Z,93.10
2023-03-01T15:07:04.134Z,93.30
2023-03-01T15:10:26.803Z,93.10
2023-03-01T15:13:48.497Z,92.70
2023-03-01T15:17:24.707Z,93.40
2023-03-01T15:20:46.552Z,93.20
2023-03-01T15:24:15.213Z,93.10
2023-03-01T15:27:36.858Z,93.30
2023-03-01T15:30:59.673Z,93.80
2023-03-01T15:34:24.044Z,93.80
2023-03-01T15:37:46.588Z,93.70
2023-03-01T15:41:23.336Z,93.80
2023-03-01T15:44:44.945Z,93.30
2023-03-01T15:48:15.663Z,93.90
2023-03-01T15:51:38.662Z,93.50
2023-03-01T15:55:02.004Z,93.20
2023-03-01T15:58:24.701Z,93.30
2023-03-01T16:01:46.652Z,93.60
2023-03-01T16:05:16.117Z,93.70
2023-03-01T16:08:39.164Z,93.80
2023-03-01T16:12:00.769Z,94.30
2023-03-01T16:15:23.469Z,93.50
2023-03-01T16:18:45.813Z,93.60
2023-03-01T16:22:07.517Z,93.80
2023-03-01T16:25:31.189Z,94.10
2023-03-01T16:28:55.093Z,93.90
2023-03-01T16:32:16.804Z,94.00
2023-03-01T16:35:40.269Z,94.60
2023-03-01T16:39:01.911Z,94.20
2023-03-01T16:42:25.083Z,94.40
2023-03-01T16:45:46.756Z,94.50
2023-03-01T16:49:08.443Z,94.70
2023-03-01T16:52:30.040Z,94.80
2023-03-01T16:55:54.928Z,95.00
2023-03-01T16:59:17.866Z,95.00
2023-03-01T17:02:39.813Z,95.10
2023-03-01T17:06:04.534Z,95.20
2023-03-01T17:09:26.473Z,95.30
2023-03-01T17:12:48.899Z,95.20
2023-03-01T17:16:13.112Z,95.30
2023-03-01T17:19:34.987Z,95.40
2023-03-01T17:22:56.741Z,95.30
2023-03-01T17:26:18.391Z,95.60
2023-03-01T17:29:42.105Z,95.40
2023-03-01T17:33:05.484Z,95.50
2023-03-01T17:36:27.163Z,95.60
2023-03-01T17:39:48.756Z,95.60
2023-03-01T17:43:10.375Z,95.70
2023-03-01T17:46:32.001Z,95.80
2023-03-01T17:49:55.016Z,95.90
2023-03-01T17:53:16.642Z,96.00
2023-03-01T17:56:38.260Z,96.30
2023-03-01T18:00:00.523Z,96.30
2023-03-01T18:03:22.346Z,96.20
2023-03-01T18:06:45.699Z,96.50
2023-03-01T18:10:07.667Z,96.60
2023-03-01T18:13:29.751Z,96.80
2023-03-01T18:16:51.577Z,96.90
2023-03-01T18:20:14.758Z,97.00
2023-03-01T18:23:38.764Z,97.20
2023-03-01T18:27:00.523Z,97.50
2023-03-01T18:30:22.646Z,97.60
2023-03-01T18:33:44.796Z,97.80
2023-03-01T18:37:09.580Z,98.00
2023-03-01T18:40:38.482Z,98.60
2023-03-01T18:44:01.071Z,98.60
2023-03-01T18:47:22.661Z,98.90
2023-03-01T18:50:44.579Z,99.10
2023-03-01T18:54:06.810Z,98.90
2023-03-01T18:57:29.902Z,98.90
2023-03-01T19:00:51.520Z,98.90
2023-03-01T19:04:14.699Z,98.80
2023-03-01T19:07:36.728Z,99.00
2023-03-01T19:10:59.025Z,99.20
2023-03-01T19:14:21.950Z,99.40
2023-03-01T19:17:43.603Z,99.50
2023-03-01T19:21:14.438Z,99.60
2023-03-01T19:24:36.950Z,99.70
2023-03-01T19:28:02.318Z,99.90
2023-03-01T19:31:26.962Z,99.90
2023-03-01T19:34:48.627Z,99.90
2023-03-01T19:38:10.242Z,99.90
2023-03-01T19:41:32.286Z,99.90
2023-03-01T19:44:53.870Z,99.90
2023-03-01T19:48:16.823Z,99.90
2023-03-01T19:51:38.407Z,99.90
2023-03-01T19:55:08.909Z,99.90
2023-03-01T19:58:31.758Z,99.90
2023-03-01T20:01:53.681Z,99.90
2023-03-01T20:05:16.743Z,99.90
2023-03-01T20:08:38.552Z,99.90
2023-03-01T20:12:00.406Z,99.90
2023-03-01T20:15:22.024Z,99.90
2023-03-01T20:18:43.699Z,99.90
2023-03-01T20:22:10.753Z,99.90
2023-03-01T20:25:32.366Z,99.90
2023-03-01T20:28:55.019Z,99.90
2023-03-01T20:32:16.883Z,99.90
2023-03-01T20:35:40.796Z,99.90
2023-03-01T20:39:03.769Z,99.90
2023-03-01T20:42:27.621Z,99.90
2023-03-01T20:45:49.235Z,99.90
2023-03-01T20:49:10.802Z,99.90
2023-03-01T20:52:42.187Z,99.90
2023-03-01T20:56:11.800Z,99.90
2023-03-01T20:59:33.796Z,99.90
2023-03-01T21:02:58.868Z,99.90
2023-03-01T21:06:21.026Z,99.90
2023-03-01T21:09:42.776Z,99.90
2023-03-01T21:13:05.751Z,99.90
2023-03-01T21:16:27.905Z,99.90
2023-03-01T21:19:49.528Z,99.90
2023-03-01T21:23:11.120Z,99.90
2023-03-01T21:26:33.050Z,99.90
2023-03-01T21:29:56.204Z,99.90
2023-03-01T21:33:17.834Z,99.90
2023-03-01T21:36:39.452Z,99.90
2023-03-01T21:40:01.071Z,99.90
2023-03-01T21:43:22.943Z,99.90
2023-03-01T21:46:45.877Z,99.90
2023-03-01T21:50:08.010Z,99.90
2023-03-01T21:53:30.487Z,99.90
2023-03-01T21:56:52.120Z,99.90
2023-03-01T22:00:14.039Z,99.90
2023-03-01T22:03:37.358Z,99.90
2023-03-01T22:06:58.937Z,99.90
2023-03-01T22:10:20.503Z,99.90
2023-03-01T22:13:42.100Z,99.90
2023-03-01T22:17:03.765Z,99.90
2023-03-01T22:20:26.828Z,99.90
2023-03-01T22:23:48.752Z,99.90
2023-03-01T22:27:10.381Z,99.90
2023-03-01T22:30:31.969Z,99.90
2023-03-01T22:33:54.334Z,99.90
2023-03-01T22:37:17.264Z,99.90
2023-03-01T22:40:39.811Z,99.90
2023-03-01T22:44:01.635Z,99.90
2023-03-01T22:47:23.617Z,99.90
2023-03-01T22:50:46.015Z,99.90
2023-03-01T22:54:09.392Z,99.90
2023-03-01T22:57:30.992Z,99.90
2023-03-01T23:00:52.614Z,99.90
2023-03-01T23:04:14.434Z,99.90
2023-03-01T23:07:36.286Z,99.90
2023-03-01T23:10:59.286Z,99.90
2023-03-01T23:14:21.415Z,99.90
2023-03-01T23:17:43.029Z,99.90
2023-03-01T23:21:07.704Z,99.90
2023-03-01T23:24:29.335Z,99.90
2023-03-01T23:27:52.350Z,99.90
2023-03-01T23:31:14.712Z,99.90
2023-03-01T23:34:36.460Z,99.90
2023-03-01T23:37:58.034Z,99.90
2023-03-01T23:41:20.404Z,99.90
2023-03-01T23:44:43.393Z,99.90
2023-03-01T23:48:05.337Z,99.90
2023-03-01T23:51:27.128Z,99.90
2023-03-01T23:54:48.731Z,99.90
2023-03-01T23:58:10.380Z,99.90
